Flag for USA

Past Weather in 34°00'29.9"N, 118°09'12.0"W, USA — Yesterday and Last 2 Weeks

Currently: 60 °F. Sunny. (Weather station: Los Angeles / USC Campus Downtown, USA). See more current weather

Past Weather in 34°00'29.9"N, 118°09'12.0"W — Graph

°F

34°00'29.9"N, 118°09'12.0"W Temperature Yesterday

Maximum temperature yesterday: 74 °F (at 12:52 pm)
Minimum temperature yesterday: 53 °F (at 5:52 am)
Average temperature yesterday: 61 °F

High & Low Weather Summary for the Past Weeks

 TemperatureHumidityPressure
High81 °F (Feb 22, 2:52 pm)89% (Feb 25, 3:52 am)30.33 "Hg (Feb 25, 3:52 am)
Low46 °F (Feb 21, 6:52 am)10% (Feb 22, 11:52 am)29.80 "Hg (Feb 13, 5:52 pm)
Average60 °F51%30.04 "Hg
* Reported Feb 10 7:00 am — Feb 25 7:52 am, 34°00'29.9"N, 118°09'12.0"W. Weather by CustomWeather, © 2021

Note: Actual official high and low records may vary slightly from our data, if they occured in-between our weather recording intervals... More about our weather records

34°00'29.9"N, 118°09'12.0"W Weather History for the Previous 24 Hours

Scroll right to see more
 ConditionsComfort  
Time TempWeatherWind HumidityBarometerVisibility
7:52 am
Thu, Feb 25
55 °FSunny.No wind77%30.13 "Hg3 mi
7:33 am53 °FSunny.No wind80%30.13 "Hg3 mi
6:52 am52 °FFog.No wind86%30.11 "Hg2 mi
6:27 am52 °FFog.No wind86%30.11 "Hg2 mi
5:52 am53 °FFog.3 mph86%30.10 "Hg4 mi
5:15 am52 °FFog.No wind86%30.10 "Hg3 mi
4:52 am52 °FFog.No wind86%30.08 "Hg3 mi
3:52 am52 °FFog.No wind89%30.07 "Hg3 mi
2:52 am53 °FFog.No wind86%30.06 "Hg4 mi
1:59 am55 °FPassing clouds.No wind83%30.07 "Hg5 mi
1:52 am55 °FPassing clouds.3 mph83%30.06 "Hg5 mi
1:13 am55 °FFog.No wind87%30.07 "Hg3 mi
1:09 am55 °FFog.No wind87%30.06 "Hg2 mi
12:52 am55 °FFog.No wind87%30.06 "Hg4 mi
11:52 pm
Wed, Feb 24
56 °FFog.3 mph87%30.05 "Hg5 mi
11:26 pm56 °FFog.3 mph87%30.06 "Hg6 mi
11:17 pm57 °FPassing clouds.3 mph83%30.05 "Hg7 mi
10:52 pm57 °FClear.No wind81%30.04 "Hg7 mi
9:52 pm57 °FClear.No wind72%30.04 "Hg10 mi
8:52 pm57 °FClear.No wind74%30.02 "Hg8 mi
7:52 pm59 °FClear.No wind67%30.01 "Hg10 mi
6:52 pm62 °FClear.No wind56%29.98 "Hg10 mi
5:52 pm63 °FClear.3 mph52%29.98 "Hg10 mi
4:52 pm65 °FSunny.5 mph52%29.97 "Hg10 mi
3:52 pm66 °FSunny.3 mph52%29.98 "Hg10 mi
2:52 pm69 °FSunny.No wind51%29.97 "Hg10 mi
1:52 pm74 °FSunny.No wind24%29.96 "Hg10 mi
12:52 pm74 °FSunny.No wind26%29.98 "Hg10 mi
11:52 am73 °FSunny.5 mph27%30.01 "Hg10 mi
10:52 am71 °FSunny.No wind29%30.03 "Hg10 mi
9:52 am68 °FSunny.3 mph30%30.04 "Hg10 mi
Weather by CustomWeather, © 2021

See weather overview